createdAt,value
2022-12-03T00:01:17.435Z,101999.97
2022-12-03T00:03:44.863Z,101996.47
2022-12-03T00:06:12.201Z,102001.72
2022-12-03T00:08:40.062Z,101998.13
2022-12-03T00:11:07.069Z,101999.84
2022-12-03T00:13:34.686Z,101997.25
2022-12-03T00:16:01.706Z,102000.72
2022-12-03T00:18:29.048Z,101999.81
2022-12-03T00:20:56.230Z,101993.72
2022-12-03T00:23:23.491Z,102007.69
2022-12-03T00:25:50.767Z,102000.66
2022-12-03T00:28:18.053Z,102006.75
2022-12-03T00:30:45.620Z,102012.09
2022-12-03T00:33:12.974Z,102013.94
2022-12-03T00:35:40.011Z,102007.81
2022-12-03T00:38:07.335Z,102004.44
2022-12-03T00:40:35.007Z,102012.31
2022-12-03T00:43:02.303Z,102005.28
2022-12-03T00:45:29.393Z,102011.41
2022-12-03T00:47:57.198Z,102006.13
2022-12-03T00:50:49.615Z,102007.91
2022-12-03T00:56:01.066Z,102009.50
2022-12-03T00:58:28.557Z,102000.78
2022-12-03T01:00:55.622Z,102006.94
2022-12-03T01:03:23.268Z,102011.28
2022-12-03T01:05:50.230Z,102012.91
2022-12-03T01:08:17.684Z,102017.25
2022-12-03T01:10:44.625Z,102026.00
2022-12-03T01:13:11.947Z,102026.06
2022-12-03T01:15:39.014Z,102032.22
2022-12-03T01:18:06.495Z,102032.16
2022-12-03T01:20:33.738Z,102032.16
2022-12-03T01:23:01.590Z,102027.81
2022-12-03T01:25:28.632Z,102019.91
2022-12-03T01:27:56.172Z,102022.47
2022-12-03T01:30:23.102Z,102026.78
2022-12-03T01:32:50.585Z,102028.56
2022-12-03T01:35:17.644Z,102024.13
2022-12-03T01:37:45.020Z,102028.63
2022-12-03T01:40:19.949Z,102036.47
2022-12-03T01:42:47.369Z,102029.44
2022-12-03T01:45:23.997Z,102045.22
2022-12-03T01:47:52.516Z,102038.25
2022-12-03T01:50:26.881Z,102039.13
2022-12-03T01:52:58.427Z,102036.50
2022-12-03T01:55:26.787Z,102035.59
2022-12-03T01:57:56.966Z,102039.06
2022-12-03T02:00:30.080Z,102046.03
2022-12-03T02:03:03.745Z,102046.97
2022-12-03T02:05:33.258Z,102046.97
2022-12-03T02:08:02.197Z,102053.88
2022-12-03T02:10:36.223Z,102046.84
2022-12-03T02:13:07.684Z,102042.50
2022-12-03T02:15:36.477Z,102046.97
2022-12-03T02:18:04.301Z,102043.31
2022-12-03T02:20:36.803Z,102048.53
2022-12-03T02:23:25.744Z,102047.59
2022-12-03T02:25:53.012Z,102050.22
2022-12-03T02:28:20.320Z,102055.44
2022-12-03T02:30:47.369Z,102043.94
2022-12-03T02:33:14.812Z,102054.41
2022-12-03T02:35:41.859Z,102050.94
2022-12-03T02:38:31.425Z,102056.06
2022-12-03T02:41:05.026Z,102056.94
2022-12-03T02:43:32.759Z,102059.63
2022-12-03T02:46:02.660Z,102059.63
2022-12-03T02:48:37.229Z,102057.03
2022-12-03T02:51:07.225Z,102063.16
2022-12-03T02:53:42.654Z,102069.25
2022-12-03T02:56:13.308Z,102068.38
2022-12-03T03:01:09.777Z,102070.06
2022-12-03T03:03:38.041Z,102072.75
2022-12-03T03:06:07.105Z,102073.59
2022-12-03T03:08:35.310Z,102070.94
2022-12-03T03:11:03.655Z,102076.22
2022-12-03T03:13:33.393Z,102083.19
2022-12-03T03:16:03.151Z,102082.31
2022-12-03T03:18:30.908Z,102077.13
2022-12-03T03:20:58.040Z,102073.59
2022-12-03T03:23:25.314Z,102072.63
2022-12-03T03:26:06.187Z,102074.25
2022-12-03T03:28:38.738Z,102076.97
2022-12-03T03:31:08.342Z,102084.69
2022-12-03T03:33:38.770Z,102077.66
2022-12-03T03:36:07.320Z,102088.91
2022-12-03T03:38:36.270Z,102090.66
2022-12-03T03:41:06.005Z,102083.69
2022-12-03T03:43:35.571Z,102090.59
2022-12-03T03:46:05.705Z,102085.50
2022-12-03T03:48:37.394Z,102087.28
2022-12-03T03:51:09.423Z,102083.84
2022-12-03T03:53:40.126Z,102089.22
2022-12-03T03:56:09.798Z,102086.59
2022-12-03T03:58:37.852Z,102083.19
2022-12-03T04:01:05.367Z,102087.66
2022-12-03T04:03:35.418Z,102091.16
2022-12-03T04:06:03.525Z,102084.09
2022-12-03T04:08:31.305Z,102092.81
2022-12-03T04:11:16.925Z,102081.38
2022-12-03T04:13:44.318Z,102090.13
2022-12-03T04:16:11.273Z,102088.28
2022-12-03T04:18:44.429Z,102080.44
2022-12-03T04:21:35.717Z,102088.34
2022-12-03T04:24:03.789Z,102089.34
2022-12-03T04:26:49.880Z,102080.41
2022-12-03T04:29:17.234Z,102091.88
2022-12-03T04:32:02.602Z,102090.13
2022-12-03T04:34:48.285Z,102090.13
2022-12-03T04:37:15.520Z,102075.22
2022-12-03T04:39:43.419Z,102085.72
2022-12-03T04:42:10.434Z,102090.00
2022-12-03T04:44:38.772Z,102077.84
2022-12-03T04:47:17.694Z,102082.19
2022-12-03T04:49:47.311Z,102084.91
2022-12-03T04:52:16.483Z,102088.44
2022-12-03T04:54:44.778Z,102092.78
2022-12-03T04:57:12.802Z,102095.44
2022-12-03T04:59:40.458Z,102096.28
2022-12-03T05:02:08.088Z,102098.91
2022-12-03T05:04:35.929Z,102096.22
2022-12-03T05:07:03.237Z,102096.97
2022-12-03T05:09:30.676Z,102102.16
2022-12-03T05:11:57.631Z,102098.59
2022-12-03T05:14:25.022Z,102105.63
2022-12-03T05:16:52.115Z,102104.63
2022-12-03T05:19:19.510Z,102096.84
2022-12-03T05:21:55.640Z,102098.38
2022-12-03T05:24:33.975Z,102107.31
2022-12-03T05:27:01.469Z,102106.44
2022-12-03T05:29:28.732Z,102108.97
2022-12-03T05:31:57.651Z,102112.53
2022-12-03T05:34:25.513Z,102116.88
2022-12-03T05:36:52.593Z,102128.25
2022-12-03T05:39:20.028Z,102134.41
2022-12-03T05:42:05.422Z,102133.66
2022-12-03T05:44:32.702Z,102132.72
2022-12-03T05:46:59.648Z,102133.66
2022-12-03T05:49:26.968Z,102138.88
2022-12-03T05:51:58.393Z,102140.66
2022-12-03T05:54:26.479Z,102137.19
2022-12-03T05:56:53.509Z,102135.56
2022-12-03T05:59:20.970Z,102152.16
2022-12-03T06:01:47.981Z,102157.38
2022-12-03T06:04:15.290Z,102148.59
2022-12-03T06:06:42.784Z,102152.16
2022-12-03T06:09:10.144Z,102145.00
2022-12-03T06:11:37.456Z,102166.09
2022-12-03T06:14:04.800Z,102159.22
2022-12-03T06:16:32.375Z,102163.69
2022-12-03T06:19:14.130Z,102165.38
2022-12-03T06:21:42.768Z,102164.41
2022-12-03T06:27:04.150Z,102174.97
2022-12-03T06:32:28.761Z,102171.34
2022-12-03T06:37:40.156Z,102173.09
2022-12-03T06:40:09.454Z,102188.13
2022-12-03T06:42:36.562Z,102180.19
2022-12-03T06:45:04.344Z,102183.72
2022-12-03T06:47:31.371Z,102188.88
2022-12-03T06:49:59.080Z,102181.97
2022-12-03T06:55:11.228Z,102175.09
2022-12-03T06:57:38.254Z,102183.84
2022-12-03T07:00:06.672Z,102186.69
2022-12-03T07:02:33.761Z,102189.38
2022-12-03T07:05:01.460Z,102169.06
2022-12-03T07:07:28.584Z,102187.38
2022-12-03T07:09:56.177Z,102188.22
2022-12-03T07:12:24.254Z,102201.38
2022-12-03T07:14:52.147Z,102194.53
2022-12-03T07:17:19.564Z,102192.22
2022-12-03T07:19:47.262Z,102199.47
2022-12-03T07:22:18.568Z,102194.38
2022-12-03T07:24:51.083Z,102200.81
2022-12-03T07:27:19.325Z,102196.56
2022-12-03T07:29:46.766Z,102197.72
2022-12-03T07:32:14.887Z,102186.97
2022-12-03T07:34:44.186Z,102194.75
2022-12-03T07:37:11.266Z,102206.91
2022-12-03T07:39:41.018Z,102190.19
2022-12-03T07:42:10.082Z,102198.81
2022-12-03T07:47:20.360Z,102199.66
2022-12-03T07:49:47.763Z,102203.94
2022-12-03T07:52:15.026Z,102210.16
2022-12-03T07:54:42.479Z,102221.66
2022-12-03T07:57:09.528Z,102208.59
2022-12-03T07:59:36.839Z,102232.28
2022-12-03T08:02:04.020Z,102216.44
2022-12-03T08:04:35.704Z,102226.19
2022-12-03T08:07:03.408Z,102233.19
2022-12-03T08:09:32.678Z,102232.34
2022-12-03T08:12:05.597Z,102240.13
2022-12-03T08:14:33.899Z,102237.50
2022-12-03T08:17:02.066Z,102234.91
2022-12-03T08:19:31.896Z,102230.66
2022-12-03T08:22:01.621Z,102238.53
2022-12-03T08:24:32.331Z,102236.75
2022-12-03T08:26:59.805Z,102228.91
2022-12-03T08:29:34.500Z,102241.28
2022-12-03T08:32:01.579Z,102221.19
2022-12-03T08:34:35.844Z,102231.81
2022-12-03T08:37:18.180Z,102219.75
2022-12-03T08:39:48.582Z,102219.84
2022-12-03T08:42:41.758Z,102227.19
2022-12-03T08:45:40.574Z,102227.34
2022-12-03T08:48:40.698Z,102228.06
2022-12-03T08:51:25.601Z,102221.78
2022-12-03T08:54:01.856Z,102227.91
2022-12-03T08:56:33.601Z,102219.94
2022-12-03T08:59:25.007Z,102219.94
2022-12-03T09:01:55.034Z,102223.47
2022-12-03T09:04:30.730Z,102223.53
2022-12-03T09:07:01.155Z,102221.03
2022-12-03T09:09:29.315Z,102229.84
2022-12-03T09:11:59.752Z,102205.34
2022-12-03T09:14:29.656Z,102217.75
2022-12-03T09:16:57.585Z,102217.09
2022-12-03T09:19:27.479Z,102227.66
2022-12-03T09:21:55.768Z,102220.75
2022-12-03T09:24:23.405Z,102221.56
2022-12-03T09:26:56.453Z,102211.81
2022-12-03T09:29:24.342Z,102217.88
2022-12-03T09:31:51.765Z,102216.00
2022-12-03T09:34:18.886Z,102217.84
2022-12-03T09:36:46.212Z,102219.63
2022-12-03T09:39:13.349Z,102216.22
2022-12-03T09:41:40.849Z,102224.13
2022-12-03T09:44:13.726Z,102226.84
2022-12-03T09:46:46.691Z,102228.59
2022-12-03T09:49:16.648Z,102235.69
2022-12-03T09:51:48.789Z,102226.84
2022-12-03T09:54:24.107Z,102235.78
2022-12-03T09:56:52.808Z,102232.13
2022-12-03T09:59:21.953Z,102224.25
2022-12-03T10:01:50.114Z,102233.94
2022-12-03T10:04:17.904Z,102239.97
2022-12-03T10:06:46.395Z,102224.13
2022-12-03T10:09:17.577Z,102233.88
2022-12-03T10:11:45.432Z,102233.00
2022-12-03T10:14:17.943Z,102239.16
2022-12-03T10:17:02.527Z,102229.41
2022-12-03T10:19:35.849Z,102233.66
2022-12-03T10:22:03.872Z,102231.91
2022-12-03T10:24:32.652Z,102239.78
2022-12-03T10:30:02.437Z,102240.63
2022-12-03T10:32:45.505Z,102233.50
2022-12-03T10:35:14.187Z,102245.00
2022-12-03T10:38:00.682Z,102232.75
2022-12-03T10:40:33.925Z,102232.75
2022-12-03T10:43:19.937Z,102241.41
2022-12-03T10:46:08.038Z,102228.22
2022-12-03T10:48:36.890Z,102224.72
2022-12-03T10:51:32.339Z,102234.34
2022-12-03T10:54:14.514Z,102222.75
2022-12-03T10:56:41.502Z,102222.66
2022-12-03T10:59:31.338Z,102235.09
2022-12-03T11:01:58.611Z,102225.41
2022-12-03T11:04:35.211Z,102235.13
2022-12-03T11:07:03.372Z,102225.59
2022-12-03T11:09:32.878Z,102214.09
2022-12-03T11:15:09.814Z,102223.88
2022-12-03T11:18:10.557Z,102237.88
2022-12-03T11:20:58.444Z,102231.88
2022-12-03T11:23:44.807Z,102232.75
2022-12-03T11:26:19.569Z,102223.03
2022-12-03T11:28:49.287Z,102220.44
2022-12-03T11:31:37.771Z,102225.56
2022-12-03T11:34:20.514Z,102223.88
2022-12-03T11:37:09.620Z,102224.84
2022-12-03T11:39:52.730Z,102231.88
2022-12-03T11:42:26.482Z,102223.09
2022-12-03T11:45:28.482Z,102237.88
2022-12-03T11:47:58.974Z,102236.06
2022-12-03T11:50:40.557Z,102236.94
2022-12-03T11:53:07.982Z,102230.78
2022-12-03T11:55:41.502Z,102241.34
2022-12-03T11:58:19.439Z,102236.19
2022-12-03T12:00:58.332Z,102232.63
2022-12-03T12:03:33.952Z,102238.78
2022-12-03T12:06:05.907Z,102233.56
2022-12-03T12:08:39.218Z,102245.72
2022-12-03T12:11:32.662Z,102252.69
2022-12-03T12:14:00.575Z,102262.31
2022-12-03T12:16:36.354Z,102258.91
2022-12-03T12:19:29.942Z,102246.47
2022-12-03T12:22:12.841Z,102258.09
2022-12-03T12:24:40.558Z,102260.75
2022-12-03T12:27:19.131Z,102260.75
2022-12-03T12:29:54.969Z,102268.53
2022-12-03T12:32:46.038Z,102271.94
2022-12-03T12:35:26.458Z,102267.66
2022-12-03T12:37:59.814Z,102268.53
2022-12-03T12:40:31.128Z,102275.50
2022-12-03T12:43:05.414Z,102269.47
2022-12-03T12:45:41.299Z,102273.00
2022-12-03T12:48:28.957Z,102268.59
2022-12-03T12:51:19.594Z,102280.00
2022-12-03T12:53:49.891Z,102279.22
2022-12-03T12:56:25.577Z,102281.84
2022-12-03T12:58:53.830Z,102280.09
2022-12-03T13:01:29.163Z,102279.91
2022-12-03T13:03:57.102Z,102282.69
2022-12-03T13:06:27.996Z,102288.75
2022-12-03T13:08:55.532Z,102287.06
2022-12-03T13:11:45.814Z,102290.50
2022-12-03T13:14:16.215Z,102299.22
2022-12-03T13:16:44.430Z,102297.38
2022-12-03T13:19:29.313Z,102307.94
2022-12-03T13:22:00.912Z,102299.97
2022-12-03T13:28:41.894Z,102302.53
2022-12-03T13:31:23.845Z,102307.78
2022-12-03T13:33:54.855Z,102297.16
2022-12-03T13:36:27.600Z,102309.53
2022-12-03T13:38:54.832Z,102309.47
2022-12-03T13:44:49.884Z,102323.53
2022-12-03T13:47:22.783Z,102316.50
2022-12-03T13:52:42.645Z,102328.47
2022-12-03T13:55:11.945Z,102311.84
2022-12-03T13:57:45.439Z,102307.31
2022-12-03T14:03:28.773Z,102325.88
2022-12-03T14:05:57.389Z,102335.56
2022-12-03T14:11:40.943Z,102327.53
2022-12-03T14:14:22.933Z,102336.22
2022-12-03T14:22:19.732Z,102334.97
2022-12-03T14:24:52.466Z,102337.34
2022-12-03T14:27:21.066Z,102335.56
2022-12-03T14:29:48.134Z,102350.38
2022-12-03T14:32:16.918Z,102339.75
2022-12-03T14:34:47.603Z,102351.03
2022-12-03T14:37:18.655Z,102353.69
2022-12-03T14:39:48.685Z,102348.22
2022-12-03T14:42:39.130Z,102364.09
2022-12-03T14:45:10.994Z,102362.22
2022-12-03T14:47:38.850Z,102357.66
2022-12-03T14:50:30.443Z,102365.59
2022-12-03T14:56:03.340Z,102375.28
2022-12-03T15:01:45.091Z,102374.28
2022-12-03T15:04:13.177Z,102380.44
2022-12-03T15:06:40.348Z,102384.78
2022-12-03T15:12:11.400Z,102381.25
2022-12-03T15:14:43.896Z,102396.94
2022-12-03T15:17:12.494Z,102390.66
2022-12-03T15:19:40.210Z,102406.47
2022-12-03T15:22:07.258Z,102409.00
2022-12-03T15:24:34.735Z,102409.81
2022-12-03T15:27:01.692Z,102417.66
2022-12-03T15:29:32.555Z,102406.13
2022-12-03T15:32:01.952Z,102421.69
2022-12-03T15:34:30.750Z,102419.88
2022-12-03T15:36:57.782Z,102429.53
2022-12-03T15:39:48.786Z,102437.34
2022-12-03T15:42:15.986Z,102421.47
2022-12-03T15:44:48.402Z,102436.50
2022-12-03T15:47:17.707Z,102428.53
2022-12-03T15:49:53.527Z,102437.16
2022-12-03T15:52:22.310Z,102445.19
2022-12-03T15:54:49.927Z,102439.06
2022-12-03T15:57:17.221Z,102440.72
2022-12-03T15:59:48.366Z,102441.53
2022-12-03T16:02:20.989Z,102446.81
2022-12-03T16:04:48.596Z,102445.00
2022-12-03T16:07:19.832Z,102454.59
2022-12-03T16:09:47.857Z,102451.97
2022-12-03T16:12:17.378Z,102444.75
2022-12-03T16:14:47.407Z,102446.44
2022-12-03T16:17:14.442Z,102453.44
2022-12-03T16:19:42.000Z,102456.94
2022-12-03T16:22:09.757Z,102461.34
2022-12-03T16:24:39.363Z,102458.56
2022-12-03T16:29:48.834Z,102474.72
2022-12-03T16:32:15.844Z,102472.66
2022-12-03T16:34:43.164Z,102469.97
2022-12-03T16:37:11.553Z,102476.94
2022-12-03T16:39:40.138Z,102469.84
2022-12-03T16:42:16.959Z,102477.69
2022-12-03T16:45:12.037Z,102486.38
2022-12-03T16:47:40.325Z,102488.13
2022-12-03T16:50:19.848Z,102492.41
2022-12-03T16:52:49.482Z,102503.91
2022-12-03T16:55:16.821Z,102497.84
2022-12-03T16:57:44.042Z,102507.50
2022-12-03T17:00:11.790Z,102502.25
2022-12-03T17:02:39.034Z,102503.06
2022-12-03T17:05:06.790Z,102506.53
2022-12-03T17:07:34.120Z,102505.66
2022-12-03T17:10:05.188Z,102504.84
2022-12-03T17:12:54.163Z,102506.41
2022-12-03T17:15:19.564Z,102507.06
2022-12-03T17:17:47.055Z,102516.84
2022-12-03T17:20:18.563Z,102523.72
2022-12-03T17:23:06.550Z,102528.06
2022-12-03T17:25:34.706Z,102511.28
2022-12-03T17:28:02.069Z,102525.47
2022-12-03T17:30:31.571Z,102521.00
2022-12-03T17:32:59.414Z,102522.72
2022-12-03T17:35:28.655Z,102523.50
2022-12-03T17:37:55.906Z,102524.34
2022-12-03T17:40:24.063Z,102525.06
2022-12-03T17:42:52.248Z,102519.53
2022-12-03T17:45:19.974Z,102528.16
2022-12-03T17:47:47.219Z,102529.66
2022-12-03T17:50:15.032Z,102529.50
2022-12-03T17:52:44.090Z,102523.38
2022-12-03T17:55:17.732Z,102530.31
2022-12-03T17:57:49.054Z,102543.28
2022-12-03T18:00:16.622Z,102532.84
2022-12-03T18:02:43.625Z,102539.66
2022-12-03T18:05:13.618Z,102543.84
2022-12-03T18:07:41.024Z,102532.47
2022-12-03T18:10:17.543Z,102530.81
2022-12-03T18:12:48.450Z,102533.13
2022-12-03T18:15:15.897Z,102534.72
2022-12-03T18:17:47.245Z,102542.53
2022-12-03T18:20:15.325Z,102538.03
2022-12-03T18:22:45.636Z,102544.22
2022-12-03T18:25:15.770Z,102542.31
2022-12-03T18:27:42.880Z,102533.53
2022-12-03T18:30:11.054Z,102546.00
2022-12-03T18:32:38.065Z,102548.53
2022-12-03T18:35:06.894Z,102534.38
2022-12-03T18:37:34.115Z,102547.53
2022-12-03T18:40:12.391Z,102550.22
2022-12-03T18:42:39.711Z,102554.41
2022-12-03T18:45:10.626Z,102561.44
2022-12-03T18:47:37.703Z,102560.56
2022-12-03T18:50:06.879Z,102555.28
2022-12-03T18:52:33.883Z,102566.75
2022-12-03T18:55:01.647Z,102556.94
2022-12-03T18:57:28.725Z,102563.88
2022-12-03T18:59:58.586Z,102570.06
2022-12-03T19:05:15.675Z,102564.72
2022-12-03T19:07:43.935Z,102573.50
2022-12-03T19:10:12.406Z,102577.06
2022-12-03T19:12:39.930Z,102577.00
2022-12-03T19:15:09.053Z,102572.59
2022-12-03T19:17:36.297Z,102570.91
2022-12-03T19:20:11.405Z,102571.84
2022-12-03T19:22:39.392Z,102572.66
2022-12-03T19:25:10.110Z,102574.38
2022-12-03T19:27:39.013Z,102580.41
2022-12-03T19:30:07.541Z,102562.84
2022-12-03T19:32:36.648Z,102566.50
2022-12-03T19:35:05.544Z,102564.59
2022-12-03T19:37:36.332Z,102569.75
2022-12-03T19:40:05.560Z,102570.69
2022-12-03T19:42:35.136Z,102575.97
2022-12-03T19:45:02.547Z,102574.22
2022-12-03T19:47:33.485Z,102583.09
2022-12-03T19:50:01.761Z,102584.03
2022-12-03T19:52:28.942Z,102577.09
2022-12-03T19:55:00.535Z,102584.19
2022-12-03T19:57:27.531Z,102578.03
2022-12-03T19:59:57.903Z,102574.47
2022-12-03T20:02:26.780Z,102578.91
2022-12-03T20:05:02.243Z,102590.34
2022-12-03T20:07:34.224Z,102590.34
2022-12-03T20:10:01.627Z,102588.56
2022-12-03T20:12:29.498Z,102594.72
2022-12-03T20:14:57.616Z,102587.59
2022-12-03T20:17:26.837Z,102592.13
2022-12-03T20:19:57.254Z,102594.94
2022-12-03T20:22:25.035Z,102589.88
2022-12-03T20:24:57.809Z,102587.34
2022-12-03T20:27:29.017Z,102581.16
2022-12-03T20:30:17.990Z,102588.16
2022-12-03T20:32:49.407Z,102589.88
2022-12-03T20:35:17.729Z,102598.41
2022-12-03T20:37:47.876Z,102593.91
2022-12-03T20:40:18.527Z,102588.44
2022-12-03T20:42:53.509Z,102597.31
2022-12-03T20:45:24.836Z,102600.78
2022-12-03T20:47:56.879Z,102599.00
2022-12-03T20:50:30.090Z,102593.78
2022-12-03T20:53:16.627Z,102608.63
2022-12-03T20:55:45.046Z,102607.84
2022-12-03T20:58:12.810Z,102611.97
2022-12-03T21:00:40.978Z,102610.34
2022-12-03T21:03:08.385Z,102605.94
2022-12-03T21:05:35.371Z,102618.91
2022-12-03T21:08:02.767Z,102629.47
2022-12-03T21:10:59.017Z,102620.72
2022-12-03T21:13:30.970Z,102621.59
2022-12-03T21:16:09.017Z,102627.63
2022-12-03T21:18:39.337Z,102624.91
2022-12-03T21:21:07.316Z,102620.72
2022-12-03T21:23:35.566Z,102622.41
2022-12-03T21:26:15.022Z,102629.59
2022-12-03T21:28:45.541Z,102619.16
2022-12-03T21:31:23.493Z,102626.34
2022-12-03T21:33:51.068Z,102616.78
2022-12-03T21:36:18.373Z,102622.84
2022-12-03T21:38:46.202Z,102625.69
2022-12-03T21:41:14.567Z,102624.84
2022-12-03T21:43:44.356Z,102627.53
2022-12-03T21:47:11.640Z,102626.66
2022-12-03T21:49:04.691Z,102626.78
2022-12-03T21:51:31.759Z,102623.25
2022-12-03T21:54:02.034Z,102618.97
2022-12-03T21:56:32.111Z,102625.88
2022-12-03T21:58:59.526Z,102618.00
2022-12-03T22:01:26.681Z,102625.94
2022-12-03T22:03:54.109Z,102606.72
2022-12-03T22:06:21.470Z,102608.38
2022-12-03T22:08:49.437Z,102601.56
2022-12-03T22:11:22.269Z,102612.94
2022-12-03T22:13:51.792Z,102617.22
2022-12-03T22:16:21.327Z,102618.09
2022-12-03T22:18:50.824Z,102617.09
2022-12-03T22:21:19.853Z,102608.25
2022-12-03T22:23:47.661Z,102612.47
2022-12-03T22:26:17.092Z,102617.88
2022-12-03T22:28:47.248Z,102617.03
2022-12-03T22:31:14.833Z,102611.88
2022-12-03T22:33:42.793Z,102606.59
2022-12-03T22:36:19.925Z,102604.09
2022-12-03T22:38:57.708Z,102598.06
2022-12-03T22:41:24.795Z,102597.13
2022-12-03T22:44:02.095Z,102596.16
2022-12-03T22:46:29.198Z,102607.44
2022-12-03T22:49:00.515Z,102603.03
2022-12-03T22:51:31.644Z,102603.03
2022-12-03T22:54:01.432Z,102590.69
2022-12-03T22:56:29.386Z,102590.13
2022-12-03T22:58:56.794Z,102589.88
2022-12-03T23:01:32.631Z,102590.03
2022-12-03T23:04:02.099Z,102602.38
2022-12-03T23:06:30.868Z,102597.13
2022-12-03T23:09:00.140Z,102594.38
2022-12-03T23:11:28.905Z,102596.13
2022-12-03T23:13:59.346Z,102592.50
2022-12-03T23:16:29.659Z,102590.81
2022-12-03T23:19:01.593Z,102601.44
2022-12-03T23:21:31.429Z,102591.78
2022-12-03T23:24:00.581Z,102586.69
2022-12-03T23:26:28.723Z,102584.81
2022-12-03T23:28:56.699Z,102592.66
2022-12-03T23:31:29.941Z,102583.88
2022-12-03T23:33:59.452Z,102590.03
2022-12-03T23:36:28.908Z,102598.75
2022-12-03T23:38:57.604Z,102597.81
2022-12-03T23:41:25.228Z,102596.75
2022-12-03T23:43:53.112Z,102593.38
2022-12-03T23:46:23.093Z,102597.94
2022-12-03T23:48:51.428Z,102598.88
2022-12-03T23:51:21.448Z,102601.44
2022-12-03T23:53:49.118Z,102607.50
2022-12-03T23:56:20.436Z,102622.38
2022-12-03T23:58:48.269Z,102611.94
